sensor_id;sensor_type;location;lat;lon;timestamp;P1;durP1;ratioP1;P2;durP2;ratioP2
51226;SDS011;42714;48.260;10.980;2023-04-25T00:03:15;5.2;;;2.7;;
51226;SDS011;42714;48.260;10.980;2023-04-25T00:08:15;9.6;;;2.6;;
51226;SDS011;42714;48.260;10.980;2023-04-25T00:13:15;6.6;;;2.7;;
51226;SDS011;42714;48.260;10.980;2023-04-25T00:18:15;7.5;;;3.0;;
51226;SDS011;42714;48.260;10.980;2023-04-25T00:23:15;7.5;;;3.6;;
51226;SDS011;42714;48.260;10.980;2023-04-25T00:28:15;6.4;;;2.7;;
51226;SDS011;42714;48.260;10.980;2023-04-25T00:33:15;10.5;;;3.4;;
51226;SDS011;42714;48.260;10.980;2023-04-25T00:38:15;11.0;;;3.6;;
51226;SDS011;42714;48.260;10.980;2023-04-25T00:43:15;8.1;;;3.8;;
51226;SDS011;42714;48.260;10.980;2023-04-25T00:48:15;9.2;;;3.6;;
51226;SDS011;42714;48.260;10.980;2023-04-25T00:53:15;8.0;;;3.9;;
51226;SDS011;42714;48.260;10.980;2023-04-25T00:58:15;10.6;;;3.8;;
51226;SDS011;42714;48.260;10.980;2023-04-25T01:03:15;11.3;;;3.9;;
51226;SDS011;42714;48.260;10.980;2023-04-25T01:08:15;7.9;;;3.9;;
51226;SDS011;42714;48.260;10.980;2023-04-25T01:13:15;7.7;;;3.6;;
51226;SDS011;42714;48.260;10.980;2023-04-25T01:18:15;8.8;;;3.9;;
51226;SDS011;42714;48.260;10.980;2023-04-25T01:23:15;8.7;;;4.4;;
51226;SDS011;42714;48.260;10.980;2023-04-25T01:28:15;8.3;;;4.1;;
51226;SDS011;42714;48.260;10.980;2023-04-25T01:33:15;8.0;;;3.8;;
51226;SDS011;42714;48.260;10.980;2023-04-25T01:38:15;6.1;;;3.1;;
51226;SDS011;42714;48.260;10.980;2023-04-25T01:43:15;8.9;;;3.7;;
51226;SDS011;42714;48.260;10.980;2023-04-25T01:48:15;9.0;;;3.4;;
51226;SDS011;42714;48.260;10.980;2023-04-25T01:53:15;8.5;;;3.8;;
51226;SDS011;42714;48.260;10.980;2023-04-25T01:58:15;8.2;;;3.8;;
51226;SDS011;42714;48.260;10.980;2023-04-25T02:03:15;10.1;;;3.7;;
51226;SDS011;42714;48.260;10.980;2023-04-25T02:08:16;10.6;;;4.0;;
51226;SDS011;42714;48.260;10.980;2023-04-25T02:13:15;7.9;;;3.7;;
51226;SDS011;42714;48.260;10.980;2023-04-25T02:18:15;10.6;;;3.7;;
51226;SDS011;42714;48.260;10.980;2023-04-25T02:23:15;8.3;;;3.3;;
51226;SDS011;42714;48.260;10.980;2023-04-25T02:28:15;6.7;;;2.9;;
51226;SDS011;42714;48.260;10.980;2023-04-25T02:33:15;7.8;;;3.5;;
51226;SDS011;42714;48.260;10.980;2023-04-25T02:38:15;6.1;;;2.5;;
51226;SDS011;42714;48.260;10.980;2023-04-25T02:43:15;10.2;;;2.9;;
51226;SDS011;42714;48.260;10.980;2023-04-25T02:48:15;8.9;;;3.8;;
51226;SDS011;42714;48.260;10.980;2023-04-25T02:53:15;12.6;;;3.6;;
51226;SDS011;42714;48.260;10.980;2023-04-25T02:58:15;7.1;;;3.2;;
51226;SDS011;42714;48.260;10.980;2023-04-25T03:03:15;10.4;;;3.7;;
51226;SDS011;42714;48.260;10.980;2023-04-25T03:08:15;12.4;;;2.9;;
51226;SDS011;42714;48.260;10.980;2023-04-25T03:13:15;9.0;;;2.9;;
51226;SDS011;42714;48.260;10.980;2023-04-25T03:18:15;10.7;;;2.7;;
51226;SDS011;42714;48.260;10.980;2023-04-25T03:23:15;10.5;;;2.8;;
51226;SDS011;42714;48.260;10.980;2023-04-25T03:28:15;5.3;;;1.7;;
51226;SDS011;42714;48.260;10.980;2023-04-25T03:33:15;6.1;;;1.9;;
51226;SDS011;42714;48.260;10.980;2023-04-25T03:38:15;3.8;;;1.4;;
51226;SDS011;42714;48.260;10.980;2023-04-25T03:43:15;7.2;;;1.4;;
51226;SDS011;42714;48.260;10.980;2023-04-25T03:48:15;5.1;;;1.4;;
51226;SDS011;42714;48.260;10.980;2023-04-25T03:53:15;5.2;;;1.5;;
51226;SDS011;42714;48.260;10.980;2023-04-25T03:58:15;6.6;;;1.3;;
51226;SDS011;42714;48.260;10.980;2023-04-25T04:03:15;6.5;;;1.8;;
51226;SDS011;42714;48.260;10.980;2023-04-25T04:08:15;5.3;;;1.5;;
51226;SDS011;42714;48.260;10.980;2023-04-25T04:13:15;5.2;;;1.4;;
51226;SDS011;42714;48.260;10.980;2023-04-25T04:18:15;7.9;;;1.7;;
51226;SDS011;42714;48.260;10.980;2023-04-25T04:23:15;6.0;;;1.6;;
51226;SDS011;42714;48.260;10.980;2023-04-25T04:28:15;4.3;;;1.5;;
51226;SDS011;42714;48.260;10.980;2023-04-25T04:33:15;9.6;;;1.4;;
51226;SDS011;42714;48.260;10.980;2023-04-25T04:38:15;7.3;;;2.0;;
51226;SDS011;42714;48.260;10.980;2023-04-25T04:43:15;8.4;;;1.9;;
51226;SDS011;42714;48.260;10.980;2023-04-25T04:48:15;9.2;;;2.8;;
51226;SDS011;42714;48.260;10.980;2023-04-25T04:53:15;5.9;;;2.1;;
51226;SDS011;42714;48.260;10.980;2023-04-25T04:58:15;6.6;;;2.6;;
51226;SDS011;42714;48.260;10.980;2023-04-25T05:03:15;8.5;;;2.6;;
51226;SDS011;42714;48.260;10.980;2023-04-25T05:08:15;7.3;;;2.6;;
51226;SDS011;42714;48.260;10.980;2023-04-25T05:13:15;7.3;;;2.6;;
51226;SDS011;42714;48.260;10.980;2023-04-25T05:18:15;12.5;;;3.0;;
51226;SDS011;42714;48.260;10.980;2023-04-25T05:23:15;8.9;;;3.5;;
51226;SDS011;42714;48.260;10.980;2023-04-25T05:28:15;7.4;;;2.3;;
51226;SDS011;42714;48.260;10.980;2023-04-25T05:33:15;9.3;;;3.3;;
51226;SDS011;42714;48.260;10.980;2023-04-25T05:38:15;17.1;;;4.8;;
51226;SDS011;42714;48.260;10.980;2023-04-25T05:43:15;6.6;;;2.3;;
51226;SDS011;42714;48.260;10.980;2023-04-25T05:48:15;13.2;;;3.8;;
51226;SDS011;42714;48.260;10.980;2023-04-25T05:53:15;10.8;;;3.1;;
51226;SDS011;42714;48.260;10.980;2023-04-25T05:58:15;11.0;;;3.3;;
51226;SDS011;42714;48.260;10.980;2023-04-25T06:03:15;15.2;;;2.8;;
51226;SDS011;42714;48.260;10.980;2023-04-25T06:08:15;11.7;;;3.2;;
51226;SDS011;42714;48.260;10.980;2023-04-25T06:13:15;11.6;;;2.8;;
51226;SDS011;42714;48.260;10.980;2023-04-25T06:18:15;7.2;;;2.8;;
51226;SDS011;42714;48.260;10.980;2023-04-25T06:23:15;6.3;;;2.2;;
51226;SDS011;42714;48.260;10.980;2023-04-25T06:28:15;10.3;;;2.6;;
51226;SDS011;42714;48.260;10.980;2023-04-25T06:33:15;13.5;;;3.2;;
51226;SDS011;42714;48.260;10.980;2023-04-25T06:38:15;6.9;;;2.0;;
51226;SDS011;42714;48.260;10.980;2023-04-25T06:43:15;8.5;;;1.8;;
51226;SDS011;42714;48.260;10.980;2023-04-25T06:48:15;3.9;;;1.2;;
51226;SDS011;42714;48.260;10.980;2023-04-25T06:53:15;9.8;;;1.5;;
51226;SDS011;42714;48.260;10.980;2023-04-25T06:58:15;3.9;;;1.2;;
51226;SDS011;42714;48.260;10.980;2023-04-25T07:03:15;4.4;;;1.2;;
51226;SDS011;42714;48.260;10.980;2023-04-25T07:08:15;5.8;;;1.2;;
51226;SDS011;42714;48.260;10.980;2023-04-25T07:13:15;6.0;;;1.3;;
51226;SDS011;42714;48.260;10.980;2023-04-25T07:18:15;6.5;;;1.4;;
51226;SDS011;42714;48.260;10.980;2023-04-25T07:23:15;4.8;;;1.3;;
51226;SDS011;42714;48.260;10.980;2023-04-25T07:28:15;5.7;;;1.5;;
51226;SDS011;42714;48.260;10.980;2023-04-25T07:33:15;3.5;;;1.1;;
51226;SDS011;42714;48.260;10.980;2023-04-25T07:38:15;3.6;;;1.1;;
51226;SDS011;42714;48.260;10.980;2023-04-25T07:43:15;4.6;;;1.0;;
51226;SDS011;42714;48.260;10.980;2023-04-25T07:48:16;3.8;;;1.1;;
51226;SDS011;42714;48.260;10.980;2023-04-25T07:53:16;4.1;;;1.0;;
51226;SDS011;42714;48.260;10.980;2023-04-25T07:58:15;7.0;;;1.9;;
51226;SDS011;42714;48.260;10.980;2023-04-25T08:03:15;5.0;;;1.0;;
51226;SDS011;42714;48.260;10.980;2023-04-25T08:08:15;4.3;;;0.9;;
51226;SDS011;42714;48.260;10.980;2023-04-25T08:13:15;6.0;;;1.0;;
51226;SDS011;42714;48.260;10.980;2023-04-25T08:18:15;4.0;;;0.9;;
51226;SDS011;42714;48.260;10.980;2023-04-25T08:23:15;7.1;;;1.1;;
51226;SDS011;42714;48.260;10.980;2023-04-25T08:28:15;3.7;;;0.9;;
51226;SDS011;42714;48.260;10.980;2023-04-25T08:33:15;10.7;;;1.4;;
51226;SDS011;42714;48.260;10.980;2023-04-25T08:38:15;4.5;;;1.0;;
51226;SDS011;42714;48.260;10.980;2023-04-25T08:43:15;4.0;;;0.9;;
51226;SDS011;42714;48.260;10.980;2023-04-25T08:48:16;5.8;;;1.1;;
51226;SDS011;42714;48.260;10.980;2023-04-25T08:53:15;12.4;;;1.2;;
51226;SDS011;42714;48.260;10.980;2023-04-25T08:57:42;32.75;;;28.09;;
51226;SDS011;42714;48.260;10.980;2023-04-25T08:58:15;8.0;;;1.0;;
51226;SDS011;42714;48.260;10.980;2023-04-25T08:58:50;31.12;;;29.60;;
51226;SDS011;42714;48.260;10.980;2023-04-25T09:03:16;3.4;;;0.7;;
51226;SDS011;42714;48.260;10.980;2023-04-25T09:08:15;4.4;;;0.9;;
51226;SDS011;42714;48.260;10.980;2023-04-25T09:13:17;4.6;;;0.9;;
51226;SDS011;42714;48.260;10.980;2023-04-25T09:23:15;8.7;;;1.0;;
51226;SDS011;42714;48.260;10.980;2023-04-25T09:28:15;3.9;;;1.1;;
51226;SDS011;42714;48.260;10.980;2023-04-25T09:33:15;6.5;;;1.1;;
51226;SDS011;42714;48.260;10.980;2023-04-25T09:38:15;6.1;;;1.3;;
51226;SDS011;42714;48.260;10.980;2023-04-25T09:48:17;4.4;;;1.4;;
51226;SDS011;42714;48.260;10.980;2023-04-25T09:53:15;6.6;;;1.7;;
51226;SDS011;42714;48.260;10.980;2023-04-25T09:58:15;5.4;;;1.6;;
51226;SDS011;42714;48.260;10.980;2023-04-25T10:03:15;3.5;;;0.9;;
51226;SDS011;42714;48.260;10.980;2023-04-25T10:08:15;3.6;;;0.8;;
51226;SDS011;42714;48.260;10.980;2023-04-25T10:13:15;4.9;;;0.9;;
51226;SDS011;42714;48.260;10.980;2023-04-25T10:18:15;4.0;;;0.9;;
51226;SDS011;42714;48.260;10.980;2023-04-25T10:23:15;5.6;;;1.6;;
51226;SDS011;42714;48.260;10.980;2023-04-25T10:28:15;4.1;;;1.2;;
51226;SDS011;42714;48.260;10.980;2023-04-25T10:33:16;5.7;;;1.4;;
51226;SDS011;42714;48.260;10.980;2023-04-25T10:38:15;9.2;;;1.5;;
51226;SDS011;42714;48.260;10.980;2023-04-25T10:48:24;4.4;;;1.3;;
51226;SDS011;42714;48.260;10.980;2023-04-25T10:53:15;5.6;;;1.1;;
51226;SDS011;42714;48.260;10.980;2023-04-25T10:58:20;5.1;;;1.7;;
51226;SDS011;42714;48.260;10.980;2023-04-25T11:03:16;5.8;;;0.8;;
51226;SDS011;42714;48.260;10.980;2023-04-25T11:08:15;8.6;;;1.6;;
51226;SDS011;42714;48.260;10.980;2023-04-25T11:13:15;5.5;;;1.5;;
51226;SDS011;42714;48.260;10.980;2023-04-25T11:18:16;4.4;;;1.2;;
51226;SDS011;42714;48.260;10.980;2023-04-25T11:23:15;4.8;;;1.5;;
51226;SDS011;42714;48.260;10.980;2023-04-25T11:28:20;4.1;;;1.4;;
51226;SDS011;42714;48.260;10.980;2023-04-25T11:33:16;4.3;;;1.5;;
51226;SDS011;42714;48.260;10.980;2023-04-25T11:38:15;3.9;;;1.1;;
51226;SDS011;42714;48.260;10.980;2023-04-25T11:43:15;7.3;;;1.8;;
51226;SDS011;42714;48.260;10.980;2023-04-25T11:48:16;6.3;;;1.8;;
51226;SDS011;42714;48.260;10.980;2023-04-25T11:53:17;4.1;;;0.9;;
51226;SDS011;42714;48.260;10.980;2023-04-25T11:58:15;1.8;;;0.6;;
51226;SDS011;42714;48.260;10.980;2023-04-25T12:03:17;3.5;;;1.1;;
51226;SDS011;42714;48.260;10.980;2023-04-25T12:08:15;5.1;;;1.6;;
51226;SDS011;42714;48.260;10.980;2023-04-25T12:18:18;7.3;;;1.6;;
51226;SDS011;42714;48.260;10.980;2023-04-25T12:23:15;6.0;;;1.9;;
51226;SDS011;42714;48.260;10.980;2023-04-25T12:28:17;10.0;;;2.9;;
51226;SDS011;42714;48.260;10.980;2023-04-25T12:33:15;2.7;;;1.3;;
51226;SDS011;42714;48.260;10.980;2023-04-25T12:43:15;3.6;;;1.2;;
51226;SDS011;42714;48.260;10.980;2023-04-25T12:48:15;5.8;;;1.4;;
51226;SDS011;42714;48.260;10.980;2023-04-25T12:53:16;6.9;;;2.5;;
51226;SDS011;42714;48.260;10.980;2023-04-25T12:58:16;3.0;;;0.8;;
51226;SDS011;42714;48.260;10.980;2023-04-25T13:03:15;3.0;;;0.7;;
51226;SDS011;42714;48.260;10.980;2023-04-25T13:08:15;1.9;;;0.7;;
51226;SDS011;42714;48.260;10.980;2023-04-25T13:13:15;2.2;;;0.7;;
51226;SDS011;42714;48.260;10.980;2023-04-25T13:18:15;4.6;;;1.2;;
51226;SDS011;42714;48.260;10.980;2023-04-25T13:23:15;2.9;;;1.0;;
51226;SDS011;42714;48.260;10.980;2023-04-25T13:28:15;4.2;;;1.3;;
51226;SDS011;42714;48.260;10.980;2023-04-25T13:33:15;2.8;;;0.9;;
51226;SDS011;42714;48.260;10.980;2023-04-25T13:38:15;4.1;;;1.4;;
51226;SDS011;42714;48.260;10.980;2023-04-25T13:43:15;4.4;;;1.2;;
51226;SDS011;42714;48.260;10.980;2023-04-25T13:48:15;2.7;;;1.2;;
51226;SDS011;42714;48.260;10.980;2023-04-25T13:53:15;2.8;;;1.2;;
51226;SDS011;42714;48.260;10.980;2023-04-25T13:58:15;2.7;;;1.1;;
51226;SDS011;42714;48.260;10.980;2023-04-25T14:03:15;4.0;;;1.3;;
51226;SDS011;42714;48.260;10.980;2023-04-25T14:08:15;4.7;;;1.1;;
51226;SDS011;42714;48.260;10.980;2023-04-25T14:13:15;4.7;;;1.0;;
51226;SDS011;42714;48.260;10.980;2023-04-25T14:18:16;2.4;;;0.7;;
51226;SDS011;42714;48.260;10.980;2023-04-25T14:23:16;3.5;;;1.2;;
51226;SDS011;42714;48.260;10.980;2023-04-25T14:28:16;9.0;;;2.5;;
51226;SDS011;42714;48.260;10.980;2023-04-25T14:33:16;5.2;;;1.3;;
51226;SDS011;42714;48.260;10.980;2023-04-25T14:38:16;7.0;;;1.6;;
51226;SDS011;42714;48.260;10.980;2023-04-25T14:43:16;6.0;;;1.7;;
51226;SDS011;42714;48.260;10.980;2023-04-25T14:48:16;5.2;;;1.6;;
51226;SDS011;42714;48.260;10.980;2023-04-25T14:53:16;4.5;;;1.6;;
51226;SDS011;42714;48.260;10.980;2023-04-25T14:58:16;2.7;;;1.3;;
51226;SDS011;42714;48.260;10.980;2023-04-25T15:03:16;3.5;;;1.4;;
51226;SDS011;42714;48.260;10.980;2023-04-25T15:08:16;4.8;;;1.9;;
51226;SDS011;42714;48.260;10.980;2023-04-25T15:13:17;7.1;;;1.7;;
51226;SDS011;42714;48.260;10.980;2023-04-25T15:18:16;4.1;;;1.7;;
51226;SDS011;42714;48.260;10.980;2023-04-25T15:23:16;4.4;;;2.1;;
51226;SDS011;42714;48.260;10.980;2023-04-25T15:28:16;5.6;;;2.8;;
51226;SDS011;42714;48.260;10.980;2023-04-25T15:33:16;6.4;;;2.7;;
51226;SDS011;42714;48.260;10.980;2023-04-25T15:38:16;7.8;;;3.5;;
51226;SDS011;42714;48.260;10.980;2023-04-25T15:43:16;7.6;;;3.2;;
51226;SDS011;42714;48.260;10.980;2023-04-25T15:48:16;6.6;;;3.7;;
51226;SDS011;42714;48.260;10.980;2023-04-25T15:53:16;6.8;;;3.7;;
51226;SDS011;42714;48.260;10.980;2023-04-25T15:58:16;9.0;;;4.1;;
51226;SDS011;42714;48.260;10.980;2023-04-25T16:03:16;6.2;;;3.0;;
51226;SDS011;42714;48.260;10.980;2023-04-25T16:08:16;7.3;;;3.8;;
51226;SDS011;42714;48.260;10.980;2023-04-25T16:13:16;6.0;;;3.5;;
51226;SDS011;42714;48.260;10.980;2023-04-25T16:18:16;7.3;;;3.1;;
51226;SDS011;42714;48.260;10.980;2023-04-25T16:23:16;7.8;;;3.5;;
51226;SDS011;42714;48.260;10.980;2023-04-25T16:28:16;6.6;;;3.3;;
51226;SDS011;42714;48.260;10.980;2023-04-25T16:33:16;7.6;;;3.1;;
51226;SDS011;42714;48.260;10.980;2023-04-25T16:38:16;7.1;;;2.6;;
51226;SDS011;42714;48.260;10.980;2023-04-25T16:48:16;7.1;;;3.4;;
51226;SDS011;42714;48.260;10.980;2023-04-25T16:53:16;7.3;;;3.8;;
51226;SDS011;42714;48.260;10.980;2023-04-25T16:58:16;6.9;;;3.3;;
51226;SDS011;42714;48.260;10.980;2023-04-25T17:03:16;7.6;;;3.5;;
51226;SDS011;42714;48.260;10.980;2023-04-25T17:08:16;6.8;;;2.3;;
51226;SDS011;42714;48.260;10.980;2023-04-25T17:13:16;9.5;;;2.6;;
51226;SDS011;42714;48.260;10.980;2023-04-25T17:18:16;8.2;;;3.2;;
51226;SDS011;42714;48.260;10.980;2023-04-25T17:23:16;9.7;;;4.6;;
51226;SDS011;42714;48.260;10.980;2023-04-25T17:28:16;15.6;;;5.2;;
51226;SDS011;42714;48.260;10.980;2023-04-25T17:33:16;13.4;;;6.0;;
51226;SDS011;42714;48.260;10.980;2023-04-25T17:38:16;20.2;;;6.8;;
51226;SDS011;42714;48.260;10.980;2023-04-25T17:43:16;16.8;;;6.3;;
51226;SDS011;42714;48.260;10.980;2023-04-25T17:48:16;16.9;;;7.4;;
51226;SDS011;42714;48.260;10.980;2023-04-25T17:53:16;22.6;;;9.2;;
51226;SDS011;42714;48.260;10.980;2023-04-25T17:58:16;21.1;;;8.4;;
51226;SDS011;42714;48.260;10.980;2023-04-25T18:03:16;20.2;;;9.0;;
51226;SDS011;42714;48.260;10.980;2023-04-25T18:08:16;20.1;;;8.9;;
51226;SDS011;42714;48.260;10.980;2023-04-25T18:13:16;19.3;;;9.1;;
51226;SDS011;42714;48.260;10.980;2023-04-25T18:18:16;17.0;;;9.1;;
51226;SDS011;42714;48.260;10.980;2023-04-25T18:23:16;13.2;;;6.2;;
51226;SDS011;42714;48.260;10.980;2023-04-25T18:28:17;14.6;;;6.1;;
51226;SDS011;42714;48.260;10.980;2023-04-25T18:33:16;11.4;;;5.5;;
51226;SDS011;42714;48.260;10.980;2023-04-25T18:38:16;16.4;;;7.3;;
51226;SDS011;42714;48.260;10.980;2023-04-25T18:43:16;19.3;;;6.8;;
51226;SDS011;42714;48.260;10.980;2023-04-25T18:48:16;15.5;;;6.6;;
51226;SDS011;42714;48.260;10.980;2023-04-25T18:53:16;16.7;;;7.2;;
51226;SDS011;42714;48.260;10.980;2023-04-25T18:58:16;20.0;;;6.5;;
51226;SDS011;42714;48.260;10.980;2023-04-25T19:03:16;14.9;;;6.3;;
51226;SDS011;42714;48.260;10.980;2023-04-25T19:08:16;15.3;;;6.5;;
51226;SDS011;42714;48.260;10.980;2023-04-25T19:13:16;13.0;;;6.2;;
51226;SDS011;42714;48.260;10.980;2023-04-25T19:18:16;15.8;;;7.1;;
51226;SDS011;42714;48.260;10.980;2023-04-25T19:23:16;17.4;;;7.2;;
51226;SDS011;42714;48.260;10.980;2023-04-25T19:28:16;15.8;;;7.0;;
51226;SDS011;42714;48.260;10.980;2023-04-25T19:33:16;18.2;;;8.7;;
51226;SDS011;42714;48.260;10.980;2023-04-25T19:38:16;17.8;;;8.8;;
51226;SDS011;42714;48.260;10.980;2023-04-25T19:43:16;21.8;;;9.1;;
51226;SDS011;42714;48.260;10.980;2023-04-25T19:48:16;23.3;;;11.2;;
51226;SDS011;42714;48.260;10.980;2023-04-25T19:53:16;19.9;;;8.3;;
51226;SDS011;42714;48.260;10.980;2023-04-25T19:58:16;20.9;;;9.0;;
51226;SDS011;42714;48.260;10.980;2023-04-25T20:03:16;29.6;;;10.5;;
51226;SDS011;42714;48.260;10.980;2023-04-25T20:08:16;19.4;;;10.1;;
51226;SDS011;42714;48.260;10.980;2023-04-25T20:13:16;19.7;;;9.1;;
51226;SDS011;42714;48.260;10.980;2023-04-25T20:18:16;21.3;;;10.3;;
51226;SDS011;42714;48.260;10.980;2023-04-25T20:23:16;19.6;;;8.0;;
51226;SDS011;42714;48.260;10.980;2023-04-25T20:28:16;22.9;;;9.3;;
51226;SDS011;42714;48.260;10.980;2023-04-25T20:33:16;25.4;;;9.6;;
51226;SDS011;42714;48.260;10.980;2023-04-25T20:38:16;26.0;;;11.0;;
51226;SDS011;42714;48.260;10.980;2023-04-25T20:43:16;22.8;;;10.9;;
51226;SDS011;42714;48.260;10.980;2023-04-25T20:48:16;27.8;;;11.8;;
51226;SDS011;42714;48.260;10.980;2023-04-25T20:53:16;26.6;;;11.9;;
51226;SDS011;42714;48.260;10.980;2023-04-25T20:58:16;24.5;;;10.6;;
51226;SDS011;42714;48.260;10.980;2023-04-25T21:03:16;25.2;;;11.4;;
51226;SDS011;42714;48.260;10.980;2023-04-25T21:08:16;24.0;;;11.1;;
51226;SDS011;42714;48.260;10.980;2023-04-25T21:13:16;19.7;;;9.2;;
51226;SDS011;42714;48.260;10.980;2023-04-25T21:18:16;28.4;;;10.2;;
51226;SDS011;42714;48.260;10.980;2023-04-25T21:23:16;28.9;;;11.4;;
51226;SDS011;42714;48.260;10.980;2023-04-25T21:28:16;30.0;;;11.4;;
51226;SDS011;42714;48.260;10.980;2023-04-25T21:33:16;32.4;;;11.7;;
51226;SDS011;42714;48.260;10.980;2023-04-25T21:38:16;33.2;;;11.6;;
51226;SDS011;42714;48.260;10.980;2023-04-25T21:43:16;35.7;;;12.3;;
51226;SDS011;42714;48.260;10.980;2023-04-25T21:48:16;36.9;;;12.3;;
51226;SDS011;42714;48.260;10.980;2023-04-25T21:53:16;37.3;;;13.0;;
51226;SDS011;42714;48.260;10.980;2023-04-25T21:58:16;34.2;;;12.0;;
51226;SDS011;42714;48.260;10.980;2023-04-25T22:03:16;37.5;;;13.0;;
51226;SDS011;42714;48.260;10.980;2023-04-25T22:08:16;33.6;;;12.2;;
51226;SDS011;42714;48.260;10.980;2023-04-25T22:13:16;47.8;;;15.5;;
51226;SDS011;42714;48.260;10.980;2023-04-25T22:18:16;48.0;;;13.8;;
51226;SDS011;42714;48.260;10.980;2023-04-25T22:23:16;43.4;;;14.9;;
51226;SDS011;42714;48.260;10.980;2023-04-25T22:28:16;39.2;;;14.0;;
51226;SDS011;42714;48.260;10.980;2023-04-25T22:33:16;42.6;;;15.0;;
51226;SDS011;42714;48.260;10.980;2023-04-25T22:38:16;45.3;;;14.3;;
51226;SDS011;42714;48.260;10.980;2023-04-25T22:43:16;53.8;;;16.4;;
51226;SDS011;42714;48.260;10.980;2023-04-25T22:48:16;38.1;;;14.2;;
51226;SDS011;42714;48.260;10.980;2023-04-25T22:53:16;36.5;;;13.2;;
51226;SDS011;42714;48.260;10.980;2023-04-25T22:58:16;48.6;;;15.7;;
51226;SDS011;42714;48.260;10.980;2023-04-25T23:03:16;42.8;;;14.6;;
51226;SDS011;42714;48.260;10.980;2023-04-25T23:08:16;44.5;;;15.2;;
51226;SDS011;42714;48.260;10.980;2023-04-25T23:13:16;58.7;;;16.7;;
51226;SDS011;42714;48.260;10.980;2023-04-25T23:18:16;47.3;;;16.0;;
51226;SDS011;42714;48.260;10.980;2023-04-25T23:23:16;57.9;;;16.4;;
51226;SDS011;42714;48.260;10.980;2023-04-25T23:28:16;59.8;;;17.7;;
51226;SDS011;42714;48.260;10.980;2023-04-25T23:33:16;45.2;;;15.0;;
51226;SDS011;42714;48.260;10.980;2023-04-25T23:38:16;44.8;;;15.4;;
51226;SDS011;42714;48.260;10.980;2023-04-25T23:43:16;47.5;;;15.7;;
51226;SDS011;42714;48.260;10.980;2023-04-25T23:48:16;46.2;;;14.9;;
51226;SDS011;42714;48.260;10.980;2023-04-25T23:53:16;38.0;;;12.2;;
51226;SDS011;42714;48.260;10.980;2023-04-25T23:58:16;33.7;;;11.7;;
